sensor_id;sensor_type;location;lat;lon;timestamp;pressure;altitude;pressure_sealevel;temperature;humidity
49451;BME280;35336;48.400;10.886;2024-01-07T00:00:09;95487.66;;;2.25;100.00
49451;BME280;35336;48.400;10.886;2024-01-07T00:00:25;95488.66;;;2.24;100.00
49451;BME280;35336;48.400;10.886;2024-01-07T00:00:40;95494.56;;;2.26;100.00
49451;BME280;35336;48.400;10.886;2024-01-07T00:00:55;95494.25;;;2.29;100.00
49451;BME280;35336;48.400;10.886;2024-01-07T00:01:11;95487.34;;;2.28;100.00
49451;BME280;35336;48.400;10.886;2024-01-07T00:01:26;95493.75;;;2.25;100.00
49451;BME280;35336;48.400;10.886;2024-01-07T00:01:50;95490.13;;;2.26;100.00
49451;BME280;35336;48.400;10.886;2024-01-07T00:02:05;95488.31;;;2.27;100.00
49451;BME280;35336;48.400;10.886;2024-01-07T00:02:21;95486.66;;;2.26;100.00
49451;BME280;35336;48.400;10.886;2024-01-07T00:02:36;95486.53;;;2.27;100.00
49451;BME280;35336;48.400;10.886;2024-01-07T00:02:51;95494.25;;;2.29;100.00
49451;BME280;35336;48.400;10.886;2024-01-07T00:03:06;95493.56;;;2.27;100.00
49451;BME280;35336;48.400;10.886;2024-01-07T00:03:22;95491.78;;;2.27;100.00
49451;BME280;35336;48.400;10.886;2024-01-07T00:03:40;95487.81;;;2.23;100.00
49451;BME280;35336;48.400;10.886;2024-01-07T00:03:55;95481.25;;;2.19;100.00
49451;BME280;35336;48.400;10.886;2024-01-07T00:04:11;95491.28;;;2.24;100.00
49451;BME280;35336;48.400;10.886;2024-01-07T00:04:26;95483.72;;;2.20;100.00
49451;BME280;35336;48.400;10.886;2024-01-07T00:04:41;95489.97;;;2.28;100.00
49451;BME280;35336;48.400;10.886;2024-01-07T00:04:56;95486.53;;;2.27;100.00
49451;BME280;35336;48.400;10.886;2024-01-07T00:05:12;95495.22;;;2.28;100.00
49451;BME280;35336;48.400;10.886;2024-01-07T00:05:27;95486.19;;;2.30;100.00
49451;BME280;35336;48.400;10.886;2024-01-07T00:05:42;95486.84;;;2.24;100.00
49451;BME280;35336;48.400;10.886;2024-01-07T00:05:57;95470.09;;;2.09;100.00
49451;BME280;35336;48.400;10.886;2024-01-07T00:06:13;95484.88;;;2.18;100.00
49451;BME280;35336;48.400;10.886;2024-01-07T00:06:30;95480.91;;;2.14;100.00
49451;BME280;35336;48.400;10.886;2024-01-07T00:06:49;95492.41;;;2.21;100.00
49451;BME280;35336;48.400;10.886;2024-01-07T00:07:04;95481.41;;;2.17;100.00
49451;BME280;35336;48.400;10.886;2024-01-07T00:07:19;95494.06;;;2.22;100.00
49451;BME280;35336;48.400;10.886;2024-01-07T00:07:37;95484.38;;;2.22;100.00
49451;BME280;35336;48.400;10.886;2024-01-07T00:07:55;95492.09;;;2.24;100.00
49451;BME280;35336;48.400;10.886;2024-01-07T00:08:10;95490.28;;;2.25;100.00
49451;BME280;35336;48.400;10.886;2024-01-07T00:08:25;95491.78;;;2.27;100.00
49451;BME280;35336;48.400;10.886;2024-01-07T00:08:40;95486.66;;;2.26;100.00
49451;BME280;35336;48.400;10.886;2024-01-07T00:08:58;95489.31;;;2.26;100.00
49451;BME280;35336;48.400;10.886;2024-01-07T00:09:13;95485.03;;;2.25;100.00
49451;BME280;35336;48.400;10.886;2024-01-07T00:09:29;95492.91;;;2.25;100.00
49451;BME280;35336;48.400;10.886;2024-01-07T00:09:44;95492.09;;;2.24;100.00
49451;BME280;35336;48.400;10.886;2024-01-07T00:09:59;95483.72;;;2.20;100.00
49451;BME280;35336;48.400;10.886;2024-01-07T00:10:14;95466.97;;;2.05;100.00
49451;BME280;35336;48.400;10.886;2024-01-07T00:10:30;95489.16;;;2.19;100.00
49451;BME280;35336;48.400;10.886;2024-01-07T00:10:45;95487.03;;;2.14;100.00
49451;BME280;35336;48.400;10.886;2024-01-07T00:11:03;95493.56;;;2.18;100.00
49451;BME280;35336;48.400;10.886;2024-01-07T00:11:18;95490.81;;;2.20;100.00
49451;BME280;35336;48.400;10.886;2024-01-07T00:11:33;95490.81;;;2.20;100.00
49451;BME280;35336;48.400;10.886;2024-01-07T00:11:49;95489.97;;;2.19;100.00
49451;BME280;35336;48.400;10.886;2024-01-07T00:12:07;95482.25;;;2.18;100.00
49451;BME280;35336;48.400;10.886;2024-01-07T00:12:25;95496.88;;;2.20;100.00
49451;BME280;35336;48.400;10.886;2024-01-07T00:12:42;95489.97;;;2.19;100.00
49451;BME280;35336;48.400;10.886;2024-01-07T00:12:57;95494.41;;;2.19;100.00
49451;BME280;35336;48.400;10.886;2024-01-07T00:13:13;95490.94;;;2.18;100.00
49451;BME280;35336;48.400;10.886;2024-01-07T00:13:28;95485.88;;;2.17;100.00
49451;BME280;35336;48.400;10.886;2024-01-07T00:13:46;95488.31;;;2.18;100.00
49451;BME280;35336;48.400;10.886;2024-01-07T00:14:01;95483.72;;;2.20;100.00
49451;BME280;35336;48.400;10.886;2024-01-07T00:14:16;95485.69;;;2.18;100.00
49451;BME280;35336;48.400;10.886;2024-01-07T00:14:31;95489.66;;;2.22;100.00
49451;BME280;35336;48.400;10.886;2024-01-07T00:14:47;95497.53;;;2.22;100.00
49451;BME280;35336;48.400;10.886;2024-01-07T00:15:04;95493.25;;;2.21;100.00
49451;BME280;35336;48.400;10.886;2024-01-07T00:15:22;95489.31;;;2.17;100.00
49451;BME280;35336;48.400;10.886;2024-01-07T00:15:37;95490.81;;;2.20;100.00
49451;BME280;35336;48.400;10.886;2024-01-07T00:15:52;95470.91;;;2.09;100.00
49451;BME280;35336;48.400;10.886;2024-01-07T00:16:08;95481.75;;;2.14;100.00
49451;BME280;35336;48.400;10.886;2024-01-07T00:16:23;95489.97;;;2.19;100.00
49451;BME280;35336;48.400;10.886;2024-01-07T00:16:40;95490.81;;;2.20;100.00
49451;BME280;35336;48.400;10.886;2024-01-07T00:16:55;95493.25;;;2.21;100.00
49451;BME280;35336;48.400;10.886;2024-01-07T00:17:10;95496.22;;;2.18;100.00
49451;BME280;35336;48.400;10.886;2024-01-07T00:17:28;95472.72;;;2.09;100.00
49451;BME280;35336;48.400;10.886;2024-01-07T00:17:43;95471.41;;;2.04;100.00
49451;BME280;35336;48.400;10.886;2024-01-07T00:17:58;95495.22;;;2.19;100.00
49451;BME280;35336;48.400;10.886;2024-01-07T00:18:13;95497.69;;;2.21;100.00
49451;BME280;35336;48.400;10.886;2024-01-07T00:18:29;95502.13;;;2.20;100.00
49451;BME280;35336;48.400;10.886;2024-01-07T00:18:44;95495.41;;;2.18;100.00
49451;BME280;35336;48.400;10.886;2024-01-07T00:18:59;95486.66;;;2.17;100.00
49451;BME280;35336;48.400;10.886;2024-01-07T00:19:15;95501.63;;;2.17;100.00
49451;BME280;35336;48.400;10.886;2024-01-07T00:19:30;95493.44;;;2.12;100.00
49451;BME280;35336;48.400;10.886;2024-01-07T00:19:45;95496.56;;;2.15;100.00
49451;BME280;35336;48.400;10.886;2024-01-07T00:20:01;95492.09;;;2.16;100.00
49451;BME280;35336;48.400;10.886;2024-01-07T00:20:16;95497.53;;;2.14;100.00
49451;BME280;35336;48.400;10.886;2024-01-07T00:20:33;95496.56;;;2.15;100.00
49451;BME280;35336;48.400;10.886;2024-01-07T00:20:49;95461.88;;;1.95;100.00
49451;BME280;35336;48.400;10.886;2024-01-07T00:21:04;95493.44;;;2.12;100.00
49451;BME280;35336;48.400;10.886;2024-01-07T00:21:22;95493.94;;;2.15;100.00
49451;BME280;35336;48.400;10.886;2024-01-07T00:21:37;95496.22;;;2.18;100.00
49451;BME280;35336;48.400;10.886;2024-01-07T00:21:52;95494.72;;;2.16;100.00
49451;BME280;35336;48.400;10.886;2024-01-07T00:22:07;95493.09;;;2.15;100.00
49451;BME280;35336;48.400;10.886;2024-01-07T00:22:23;95491.28;;;2.15;100.00
49451;BME280;35336;48.400;10.886;2024-01-07T00:22:38;95493.25;;;2.13;100.00
49451;BME280;35336;48.400;10.886;2024-01-07T00:22:53;95494.41;;;2.19;100.00
49451;BME280;35336;48.400;10.886;2024-01-07T00:23:08;95495.22;;;2.19;100.00
49451;BME280;35336;48.400;10.886;2024-01-07T00:23:26;95489.97;;;2.19;100.00
49451;BME280;35336;48.400;10.886;2024-01-07T00:23:41;95492.28;;;2.14;100.00
49451;BME280;35336;48.400;10.886;2024-01-07T00:23:56;95499.50;;;2.20;100.00
49451;BME280;35336;48.400;10.886;2024-01-07T00:24:12;95494.72;;;2.16;100.00
49451;BME280;35336;48.400;10.886;2024-01-07T00:24:27;95490.31;;;2.16;100.00
49451;BME280;35336;48.400;10.886;2024-01-07T00:24:42;95491.94;;;2.17;100.00
49451;BME280;35336;48.400;10.886;2024-01-07T00:24:58;95473.19;;;2.04;100.00
49451;BME280;35336;48.400;10.886;2024-01-07T00:25:13;95494.72;;;2.16;100.00
49451;BME280;35336;48.400;10.886;2024-01-07T00:25:30;95490.31;;;2.16;100.00
49451;BME280;35336;48.400;10.886;2024-01-07T00:25:48;95491.13;;;2.17;100.00
49451;BME280;35336;48.400;10.886;2024-01-07T00:26:04;95488.31;;;2.18;100.00
49451;BME280;35336;48.400;10.886;2024-01-07T00:26:21;95488.66;;;2.15;100.00
49451;BME280;35336;48.400;10.886;2024-01-07T00:26:36;95486.66;;;2.17;100.00
49451;BME280;35336;48.400;10.886;2024-01-07T00:26:52;95473.06;;;2.05;100.00
49451;BME280;35336;48.400;10.886;2024-01-07T00:27:07;95489.31;;;2.17;100.00
49451;BME280;35336;48.400;10.886;2024-01-07T00:27:22;95493.56;;;2.18;100.00
49451;BME280;35336;48.400;10.886;2024-01-07T00:27:37;95491.94;;;2.17;100.00
49451;BME280;35336;48.400;10.886;2024-01-07T00:27:53;95488.66;;;2.15;100.00
49451;BME280;35336;48.400;10.886;2024-01-07T00:28:08;95478.47;;;2.12;100.00
49451;BME280;35336;48.400;10.886;2024-01-07T00:28:23;95470.44;;;2.05;100.00
49451;BME280;35336;48.400;10.886;2024-01-07T00:28:38;95486.34;;;2.20;100.00
49451;BME280;35336;48.400;10.886;2024-01-07T00:28:54;95492.28;;;2.22;100.00
49451;BME280;35336;48.400;10.886;2024-01-07T00:29:09;95480.44;;;2.18;100.00
49451;BME280;35336;48.400;10.886;2024-01-07T00:29:27;95493.94;;;2.24;100.00
49451;BME280;35336;48.400;10.886;2024-01-07T00:29:44;95489.47;;;2.24;100.00
49451;BME280;35336;48.400;10.886;2024-01-07T00:30:00;95470.56;;;2.12;100.00
49451;BME280;35336;48.400;10.886;2024-01-07T00:30:18;95483.53;;;2.22;100.00
49451;BME280;35336;48.400;10.886;2024-01-07T00:30:33;95488.81;;;2.22;100.00
49451;BME280;35336;48.400;10.886;2024-01-07T00:30:48;95482.41;;;2.16;100.00
49451;BME280;35336;48.400;10.886;2024-01-07T00:31:03;95488.97;;;2.20;100.00
49451;BME280;35336;48.400;10.886;2024-01-07T00:31:19;95487.34;;;2.19;100.00
49451;BME280;35336;48.400;10.886;2024-01-07T00:31:34;95491.94;;;2.17;100.00
49451;BME280;35336;48.400;10.886;2024-01-07T00:31:51;95485.38;;;2.13;100.00
49451;BME280;35336;48.400;10.886;2024-01-07T00:32:09;95490.31;;;2.16;100.00
49451;BME280;35336;48.400;10.886;2024-01-07T00:32:24;95483.72;;;2.12;100.00
49451;BME280;35336;48.400;10.886;2024-01-07T00:32:40;95493.09;;;2.15;100.00
49451;BME280;35336;48.400;10.886;2024-01-07T00:32:55;95478.31;;;2.05;100.00
49451;BME280;35336;48.400;10.886;2024-01-07T00:33:13;95479.63;;;2.10;100.00
49451;BME280;35336;48.400;10.886;2024-01-07T00:33:32;95495.72;;;2.15;100.00
49451;BME280;35336;48.400;10.886;2024-01-07T00:33:47;95489.81;;;2.13;100.00
49451;BME280;35336;48.400;10.886;2024-01-07T00:34:02;95492.28;;;2.14;100.00
49451;BME280;35336;48.400;10.886;2024-01-07T00:34:19;95490.47;;;2.15;100.00
49451;BME280;35336;48.400;10.886;2024-01-07T00:34:35;95487.03;;;2.14;100.00
49451;BME280;35336;48.400;10.886;2024-01-07T00:34:50;95488.31;;;2.18;100.00
49451;BME280;35336;48.400;10.886;2024-01-07T00:35:05;95494.56;;;2.17;100.00
49451;BME280;35336;48.400;10.886;2024-01-07T00:35:21;95487.81;;;2.15;100.00
49451;BME280;35336;48.400;10.886;2024-01-07T00:35:36;95484.88;;;2.18;100.00
49451;BME280;35336;48.400;10.886;2024-01-07T00:35:51;95488.50;;;2.17;100.00
49451;BME280;35336;48.400;10.886;2024-01-07T00:36:07;95499.00;;;2.17;100.00
49451;BME280;35336;48.400;10.886;2024-01-07T00:36:22;95484.22;;;2.16;100.00
49451;BME280;35336;48.400;10.886;2024-01-07T00:36:37;95491.28;;;2.15;100.00
49451;BME280;35336;48.400;10.886;2024-01-07T00:36:52;95465.97;;;1.98;100.00
49451;BME280;35336;48.400;10.886;2024-01-07T00:37:08;95488.00;;;2.13;100.00
49451;BME280;35336;48.400;10.886;2024-01-07T00:37:23;95488.81;;;2.14;100.00
49451;BME280;35336;48.400;10.886;2024-01-07T00:37:38;95493.25;;;2.13;100.00
49451;BME280;35336;48.400;10.886;2024-01-07T00:37:53;95494.25;;;2.12;100.00
49451;BME280;35336;48.400;10.886;2024-01-07T00:38:09;95493.25;;;2.13;100.00
49451;BME280;35336;48.400;10.886;2024-01-07T00:38:24;95490.63;;;2.13;100.00
49451;BME280;35336;48.400;10.886;2024-01-07T00:38:39;95488.31;;;2.18;100.00
49451;BME280;35336;48.400;10.886;2024-01-07T00:38:54;95491.94;;;2.17;100.00
49451;BME280;35336;48.400;10.886;2024-01-07T00:39:10;95496.56;;;2.15;100.00
49451;BME280;35336;48.400;10.886;2024-01-07T00:39:25;95482.06;;;2.11;100.00
49451;BME280;35336;48.400;10.886;2024-01-07T00:39:40;95494.91;;;2.14;100.00
49451;BME280;35336;48.400;10.886;2024-01-07T00:39:55;95494.91;;;2.14;100.00
49451;BME280;35336;48.400;10.886;2024-01-07T00:40:13;95496.69;;;2.14;100.00
49451;BME280;35336;48.400;10.886;2024-01-07T00:40:31;95499.31;;;2.14;100.00
49451;BME280;35336;48.400;10.886;2024-01-07T00:40:46;95491.78;;;2.11;100.00
49451;BME280;35336;48.400;10.886;2024-01-07T00:41:02;95488.31;;;2.10;100.00
49451;BME280;35336;48.400;10.886;2024-01-07T00:41:17;95488.97;;;2.12;100.00
49451;BME280;35336;48.400;10.886;2024-01-07T00:41:32;95484.69;;;2.11;100.00
49451;BME280;35336;48.400;10.886;2024-01-07T00:41:47;95490.94;;;2.10;100.00
49451;BME280;35336;48.400;10.886;2024-01-07T00:42:03;95485.19;;;2.06;100.00
49451;BME280;35336;48.400;10.886;2024-01-07T00:42:18;95491.97;;;2.09;100.00
49451;BME280;35336;48.400;10.886;2024-01-07T00:42:33;95485.06;;;2.08;100.00
49451;BME280;35336;48.400;10.886;2024-01-07T00:42:49;95471.72;;;2.01;100.00
49451;BME280;35336;48.400;10.886;2024-01-07T00:43:04;95488.31;;;2.10;100.00
49451;BME280;35336;48.400;10.886;2024-01-07T00:43:19;95488.31;;;2.10;100.00
49451;BME280;35336;48.400;10.886;2024-01-07T00:43:34;95489.97;;;2.11;100.00
49451;BME280;35336;48.400;10.886;2024-01-07T00:43:50;95489.97;;;2.11;100.00
49451;BME280;35336;48.400;10.886;2024-01-07T00:44:05;95461.88;;;1.95;100.00
49451;BME280;35336;48.400;10.886;2024-01-07T00:44:20;95486.53;;;2.11;100.00
49451;BME280;35336;48.400;10.886;2024-01-07T00:44:37;95488.16;;;2.12;100.00
49451;BME280;35336;48.400;10.886;2024-01-07T00:44:52;95483.72;;;2.12;100.00
49451;BME280;35336;48.400;10.886;2024-01-07T00:45:08;95486.34;;;2.12;100.00
49451;BME280;35336;48.400;10.886;2024-01-07T00:45:25;95487.19;;;2.13;100.00
49451;BME280;35336;48.400;10.886;2024-01-07T00:45:41;95487.19;;;2.13;100.00
49451;BME280;35336;48.400;10.886;2024-01-07T00:45:56;95489.97;;;2.11;100.00
49451;BME280;35336;48.400;10.886;2024-01-07T00:46:13;95497.84;;;2.11;100.00
49451;BME280;35336;48.400;10.886;2024-01-07T00:46:29;95491.78;;;2.11;100.00
49451;BME280;35336;48.400;10.886;2024-01-07T00:46:46;95488.97;;;2.12;100.00
49451;BME280;35336;48.400;10.886;2024-01-07T00:47:02;95491.59;;;2.12;100.00
49451;BME280;35336;48.400;10.886;2024-01-07T00:47:17;95488.97;;;2.12;100.00
49451;BME280;35336;48.400;10.886;2024-01-07T00:47:32;95491.78;;;2.11;100.00
49451;BME280;35336;48.400;10.886;2024-01-07T00:47:50;95495.09;;;2.13;100.00
49451;BME280;35336;48.400;10.886;2024-01-07T00:48:05;95488.00;;;2.13;100.00
49451;BME280;35336;48.400;10.886;2024-01-07T00:48:21;95488.16;;;2.03;100.00
49451;BME280;35336;48.400;10.886;2024-01-07T00:48:38;95493.91;;;2.07;100.00
49451;BME280;35336;48.400;10.886;2024-01-07T00:48:53;95488.84;;;2.05;100.00
49451;BME280;35336;48.400;10.886;2024-01-07T00:49:08;95494.91;;;2.06;100.00
49451;BME280;35336;48.400;10.886;2024-01-07T00:49:24;95489.47;;;2.08;100.00
49451;BME280;35336;48.400;10.886;2024-01-07T00:49:39;95486.34;;;2.04;100.00
49451;BME280;35336;48.400;10.886;2024-01-07T00:49:54;95492.94;;;2.08;100.00
49451;BME280;35336;48.400;10.886;2024-01-07T00:50:14;95489.66;;;2.06;100.00
49451;BME280;35336;48.400;10.886;2024-01-07T00:50:29;95490.31;;;2.08;100.00
49451;BME280;35336;48.400;10.886;2024-01-07T00:50:44;95489.16;;;2.02;100.00
49451;BME280;35336;48.400;10.886;2024-01-07T00:51:00;95490.44;;;2.06;100.00
49451;BME280;35336;48.400;10.886;2024-01-07T00:51:15;95494.72;;;2.08;100.00
49451;BME280;35336;48.400;10.886;2024-01-07T00:51:33;95496.56;;;2.07;100.00
49451;BME280;35336;48.400;10.886;2024-01-07T00:51:48;95469.44;;;1.90;100.00
49451;BME280;35336;48.400;10.886;2024-01-07T00:52:04;95499.34;;;2.05;100.00
49451;BME280;35336;48.400;10.886;2024-01-07T00:52:21;95495.72;;;2.06;100.00
49451;BME280;35336;48.400;10.886;2024-01-07T00:52:37;95495.56;;;2.08;100.00
49451;BME280;35336;48.400;10.886;2024-01-07T00:52:52;95495.56;;;2.08;100.00
49451;BME280;35336;48.400;10.886;2024-01-07T00:53:08;95494.59;;;2.09;100.00
49451;BME280;35336;48.400;10.886;2024-01-07T00:53:23;95487.69;;;2.08;100.00
49451;BME280;35336;48.400;10.886;2024-01-07T00:53:38;95498.19;;;2.08;100.00
49451;BME280;35336;48.400;10.886;2024-01-07T00:53:53;95479.59;;;1.93;100.00
49451;BME280;35336;48.400;10.886;2024-01-07T00:54:09;95496.88;;;2.04;100.00
49451;BME280;35336;48.400;10.886;2024-01-07T00:54:24;95489.63;;;1.98;100.00
49451;BME280;35336;48.400;10.886;2024-01-07T00:54:39;95497.72;;;2.04;100.00
49451;BME280;35336;48.400;10.886;2024-01-07T00:54:54;95501.31;;;2.03;100.00
49451;BME280;35336;48.400;10.886;2024-01-07T00:55:10;95502.13;;;2.04;100.00
49451;BME280;35336;48.400;10.886;2024-01-07T00:55:25;95499.19;;;2.07;100.00
49451;BME280;35336;48.400;10.886;2024-01-07T00:55:40;95495.06;;;2.04;100.00
49451;BME280;35336;48.400;10.886;2024-01-07T00:55:56;95505.41;;;2.06;100.00
49451;BME280;35336;48.400;10.886;2024-01-07T00:56:12;95497.84;;;2.03;100.00
49451;BME280;35336;48.400;10.886;2024-01-07T00:56:30;95496.22;;;2.02;100.00
49451;BME280;35336;48.400;10.886;2024-01-07T00:56:45;95495.72;;;2.06;100.00
49451;BME280;35336;48.400;10.886;2024-01-07T00:57:01;95483.09;;;2.02;100.00
49451;BME280;35336;48.400;10.886;2024-01-07T00:57:18;95488.97;;;2.04;100.00
49451;BME280;35336;48.400;10.886;2024-01-07T00:57:38;95501.97;;;2.05;100.00
49451;BME280;35336;48.400;10.886;2024-01-07T00:57:53;95488.66;;;1.99;100.00
49451;BME280;35336;48.400;10.886;2024-01-07T00:58:09;95466.44;;;1.85;100.00
49451;BME280;35336;48.400;10.886;2024-01-07T00:58:24;95493.91;;;1.99;100.00
49451;BME280;35336;48.400;10.886;2024-01-07T00:58:42;95499.47;;;1.96;100.00
49451;BME280;35336;48.400;10.886;2024-01-07T00:58:57;95492.56;;;1.95;100.00
49451;BME280;35336;48.400;10.886;2024-01-07T00:59:12;95460.22;;;1.78;100.00
49451;BME280;35336;48.400;10.886;2024-01-07T00:59:28;95491.78;;;1.94;100.00
49451;BME280;35336;48.400;10.886;2024-01-07T00:59:44;95464.47;;;1.70;100.00
49451;BME280;35336;48.400;10.886;2024-01-07T01:00:04;95497.84;;;1.95;100.00
49451;BME280;35336;48.400;10.886;2024-01-07T01:00:19;95491.28;;;1.90;100.00
49451;BME280;35336;48.400;10.886;2024-01-07T01:00:37;95498.00;;;1.93;100.00
49451;BME280;35336;48.400;10.886;2024-01-07T01:00:52;95490.47;;;1.90;100.00
49451;BME280;35336;48.400;10.886;2024-01-07T01:01:07;95497.84;;;1.95;100.00
49451;BME280;35336;48.400;10.886;2024-01-07T01:01:23;95501.47;;;1.94;100.00
49451;BME280;35336;48.400;10.886;2024-01-07T01:01:38;95504.91;;;1.94;100.00
49451;BME280;35336;48.400;10.886;2024-01-07T01:01:53;95492.44;;;1.88;100.00
49451;BME280;35336;48.400;10.886;2024-01-07T01:02:09;95499.00;;;1.92;100.00
49451;BME280;35336;48.400;10.886;2024-01-07T01:02:24;95504.75;;;1.96;100.00
49451;BME280;35336;48.400;10.886;2024-01-07T01:02:39;95503.94;;;1.95;100.00
49451;BME280;35336;48.400;10.886;2024-01-07T01:02:54;95499.84;;;1.93;100.00
49451;BME280;35336;48.400;10.886;2024-01-07T01:03:10;95502.59;;;1.91;100.00
49451;BME280;35336;48.400;10.886;2024-01-07T01:03:27;95494.56;;;1.93;100.00
49451;BME280;35336;48.400;10.886;2024-01-07T01:03:43;95489.97;;;1.86;100.00
49451;BME280;35336;48.400;10.886;2024-01-07T01:03:58;95497.34;;;1.91;100.00
49451;BME280;35336;48.400;10.886;2024-01-07T01:04:13;95499.84;;;1.93;100.00
49451;BME280;35336;48.400;10.886;2024-01-07T01:04:28;95503.75;;;1.97;100.00
49451;BME280;35336;48.400;10.886;2024-01-07T01:04:44;95505.41;;;1.98;100.00
49451;BME280;35336;48.400;10.886;2024-01-07T01:05:01;95490.47;;;1.90;100.00
49451;BME280;35336;48.400;10.886;2024-01-07T01:05:17;95501.13;;;1.97;100.00
49451;BME280;35336;48.400;10.886;2024-01-07T01:05:32;95501.97;;;1.97;100.00
49451;BME280;35336;48.400;10.886;2024-01-07T01:05:49;95499.34;;;1.97;100.00
49451;BME280;35336;48.400;10.886;2024-01-07T01:06:07;95506.41;;;1.97;100.00
49451;BME280;35336;48.400;10.886;2024-01-07T01:06:22;95504.75;;;1.96;100.00
49451;BME280;35336;48.400;10.886;2024-01-07T01:06:37;95492.75;;;1.93;100.00
49451;BME280;35336;48.400;10.886;2024-01-07T01:06:53;95495.22;;;1.95;100.00
49451;BME280;35336;48.400;10.886;2024-01-07T01:07:10;95508.88;;;1.98;100.00
49451;BME280;35336;48.400;10.886;2024-01-07T01:07:25;95501.00;;;1.98;100.00
49451;BME280;35336;48.400;10.886;2024-01-07T01:07:43;95494.56;;;1.93;100.00
49451;BME280;35336;48.400;10.886;2024-01-07T01:07:58;95498.50;;;1.97;100.00
49451;BME280;35336;48.400;10.886;2024-01-07T01:08:13;95495.38;;;1.93;100.00
49451;BME280;35336;48.400;10.886;2024-01-07T01:08:28;95469.25;;;1.75;100.00
49451;BME280;35336;48.400;10.886;2024-01-07T01:08:44;95500.31;;;1.96;100.00
49451;BME280;35336;48.400;10.886;2024-01-07T01:09:01;95502.78;;;1.98;100.00
49451;BME280;35336;48.400;10.886;2024-01-07T01:09:16;95486.00;;;1.82;100.00
49451;BME280;35336;48.400;10.886;2024-01-07T01:09:32;95496.53;;;1.90;100.00
49451;BME280;35336;48.400;10.886;2024-01-07T01:09:49;95483.56;;;1.81;100.00
49451;BME280;35336;48.400;10.886;2024-01-07T01:10:05;95492.75;;;1.93;100.00
49451;BME280;35336;48.400;10.886;2024-01-07T01:10:21;95501.97;;;1.97;100.00
49451;BME280;35336;48.400;10.886;2024-01-07T01:10:37;95498.50;;;1.88;100.00
49451;BME280;35336;48.400;10.886;2024-01-07T01:10:52;95498.84;;;1.85;100.00
49451;BME280;35336;48.400;10.886;2024-01-07T01:11:10;95504.91;;;1.86;100.00
49451;BME280;35336;48.400;10.886;2024-01-07T01:11:25;95496.22;;;1.85;100.00
49451;BME280;35336;48.400;10.886;2024-01-07T01:11:40;95469.91;;;1.69;100.00
49451;BME280;35336;48.400;10.886;2024-01-07T01:11:56;95491.91;;;1.76;100.00
49451;BME280;35336;48.400;10.886;2024-01-07T01:12:11;95480.75;;;1.74;100.00
49451;BME280;35336;48.400;10.886;2024-01-07T01:12:26;95504.91;;;1.86;100.00
49451;BME280;35336;48.400;10.886;2024-01-07T01:12:42;95504.09;;;1.85;100.00
49451;BME280;35336;48.400;10.886;2024-01-07T01:12:57;95507.72;;;1.84;100.00
49451;BME280;35336;48.400;10.886;2024-01-07T01:13:12;95479.44;;;1.70;100.00
49451;BME280;35336;48.400;10.886;2024-01-07T01:13:30;95498.16;;;1.83;100.00
49451;BME280;35336;48.400;10.886;2024-01-07T01:13:47;95503.25;;;1.85;100.00
49451;BME280;35336;48.400;10.886;2024-01-07T01:14:03;95505.06;;;1.84;100.00
49451;BME280;35336;48.400;10.886;2024-01-07T01:14:18;95503.44;;;1.83;100.00
49451;BME280;35336;48.400;10.886;2024-01-07T01:14:33;95500.00;;;1.83;100.00
49451;BME280;35336;48.400;10.886;2024-01-07T01:14:48;95507.03;;;1.82;100.00
49451;BME280;35336;48.400;10.886;2024-01-07T01:15:04;95503.59;;;1.82;100.00
49451;BME280;35336;48.400;10.886;2024-01-07T01:15:20;95501.94;;;1.81;100.00
49451;BME280;35336;48.400;10.886;2024-01-07T01:15:35;95503.75;;;1.80;100.00
49451;BME280;35336;48.400;10.886;2024-01-07T01:15:52;95505.56;;;1.80;100.00
49451;BME280;35336;48.400;10.886;2024-01-07T01:16:08;95506.53;;;1.79;100.00
49451;BME280;35336;48.400;10.886;2024-01-07T01:16:23;95507.38;;;1.79;100.00
49451;BME280;35336;48.400;10.886;2024-01-07T01:16:38;95504.75;;;1.79;100.00
49451;BME280;35336;48.400;10.886;2024-01-07T01:16:53;95502.25;;;1.78;100.00
49451;BME280;35336;48.400;10.886;2024-01-07T01:17:09;95501.28;;;1.79;100.00
49451;BME280;35336;48.400;10.886;2024-01-07T01:17:24;95502.25;;;1.78;100.00
49451;BME280;35336;48.400;10.886;2024-01-07T01:17:39;95489.94;;;1.70;100.00
49451;BME280;35336;48.400;10.886;2024-01-07T01:17:54;95507.38;;;1.79;100.00
49451;BME280;35336;48.400;10.886;2024-01-07T01:18:12;95502.44;;;1.76;100.00
49451;BME280;35336;48.400;10.886;2024-01-07T01:18:27;95501.44;;;1.77;100.00
49451;BME280;35336;48.400;10.886;2024-01-07T01:18:43;95494.84;;;1.73;100.00
49451;BME280;35336;48.400;10.886;2024-01-07T01:18:58;95503.25;;;1.77;100.00
49451;BME280;35336;48.400;10.886;2024-01-07T01:19:13;95506.03;;;1.75;100.00
49451;BME280;35336;48.400;10.886;2024-01-07T01:19:29;95496.38;;;1.76;100.00
49451;BME280;35336;48.400;10.886;2024-01-07T01:19:46;95477.28;;;1.65;100.00
49451;BME280;35336;48.400;10.886;2024-01-07T01:20:02;95505.72;;;1.78;100.00
49451;BME280;35336;48.400;10.886;2024-01-07T01:20:17;95503.09;;;1.78;100.00
49451;BME280;35336;48.400;10.886;2024-01-07T01:20:32;95505.88;;;1.77;100.00
49451;BME280;35336;48.400;10.886;2024-01-07T01:20:47;95502.25;;;1.78;100.00
49451;BME280;35336;48.400;10.886;2024-01-07T01:21:03;95500.13;;;1.73;100.00
49451;BME280;35336;48.400;10.886;2024-01-07T01:21:19;95499.81;;;1.76;100.00
49451;BME280;35336;48.400;10.886;2024-01-07T01:21:34;95503.91;;;1.79;100.00
49451;BME280;35336;48.400;10.886;2024-01-07T01:21:49;95503.91;;;1.79;100.00
49451;BME280;35336;48.400;10.886;2024-01-07T01:22:04;95509.84;;;1.81;100.00
49451;BME280;35336;48.400;10.886;2024-01-07T01:22:22;95509.66;;;1.82;100.00
49451;BME280;35336;48.400;10.886;2024-01-07T01:22:37;95499.31;;;1.81;100.00